sensor_id;sensor_type;location;lat;lon;timestamp;pressure;altitude;pressure_sealevel;temperature;humidity
48964;BME280;34776;48.180;16.420;2023-07-20T00:01:43;99170.16;;;24.39;43.10
48964;BME280;34776;48.180;16.420;2023-07-20T00:04:10;99173.59;;;24.33;43.65
48964;BME280;34776;48.180;16.420;2023-07-20T00:06:35;99167.22;;;24.26;43.74
48964;BME280;34776;48.180;16.420;2023-07-20T00:09:01;99157.44;;;24.17;43.95
48964;BME280;34776;48.180;16.420;2023-07-20T00:11:27;99147.22;;;24.04;44.34
48964;BME280;34776;48.180;16.420;2023-07-20T00:13:53;99145.09;;;23.91;45.07
48964;BME280;34776;48.180;16.420;2023-07-20T00:16:18;99140.28;;;23.78;45.50
48964;BME280;34776;48.180;16.420;2023-07-20T00:18:44;99138.97;;;23.66;45.59
48964;BME280;34776;48.180;16.420;2023-07-20T00:21:09;99148.03;;;23.58;45.62
48964;BME280;34776;48.180;16.420;2023-07-20T00:23:34;99153.97;;;23.54;46.02
48964;BME280;34776;48.180;16.420;2023-07-20T00:26:00;99161.44;;;23.51;46.11
48964;BME280;34776;48.180;16.420;2023-07-20T00:28:25;99171.63;;;23.49;46.03
48964;BME280;34776;48.180;16.420;2023-07-20T00:30:50;99177.03;;;23.49;46.28
48964;BME280;34776;48.180;16.420;2023-07-20T00:33:17;99172.28;;;23.51;46.29
48964;BME280;34776;48.180;16.420;2023-07-20T00:35:44;99175.00;;;23.51;46.49
48964;BME280;34776;48.180;16.420;2023-07-20T00:38:09;99177.41;;;23.46;46.37
48964;BME280;34776;48.180;16.420;2023-07-20T00:40:39;99187.59;;;23.44;46.88
48964;BME280;34776;48.180;16.420;2023-07-20T00:43:05;99180.66;;;23.42;46.76
48964;BME280;34776;48.180;16.420;2023-07-20T00:45:31;99186.25;;;23.40;46.83
48964;BME280;34776;48.180;16.420;2023-07-20T00:47:57;99200.16;;;23.37;46.69
48964;BME280;34776;48.180;16.420;2023-07-20T00:50:24;99186.78;;;23.36;47.24
48964;BME280;34776;48.180;16.420;2023-07-20T00:52:49;99202.56;;;23.32;47.44
48964;BME280;34776;48.180;16.420;2023-07-20T00:55:15;99200.38;;;23.27;47.18
48964;BME280;34776;48.180;16.420;2023-07-20T00:57:40;99205.78;;;23.27;47.14
48964;BME280;34776;48.180;16.420;2023-07-20T01:00:07;99197.63;;;23.36;46.89
48964;BME280;34776;48.180;16.420;2023-07-20T01:02:32;99184.03;;;23.44;46.67
48964;BME280;34776;48.180;16.420;2023-07-20T01:04:58;99180.41;;;23.51;46.67
48964;BME280;34776;48.180;16.420;2023-07-20T01:07:27;99173.09;;;23.60;46.54
48964;BME280;34776;48.180;16.420;2023-07-20T01:12:46;99156.03;;;23.83;46.24
48964;BME280;34776;48.180;16.420;2023-07-20T01:15:11;99143.91;;;23.94;46.01
48964;BME280;34776;48.180;16.420;2023-07-20T01:17:37;99143.00;;;24.01;45.88
48964;BME280;34776;48.180;16.420;2023-07-20T01:20:03;99136.66;;;24.09;45.61
48964;BME280;34776;48.180;16.420;2023-07-20T01:31:26;99140.00;;;24.34;44.92
48964;BME280;34776;48.180;16.420;2023-07-20T01:33:56;99144.41;;;24.35;44.70
48964;BME280;34776;48.180;16.420;2023-07-20T01:36:26;99142.53;;;24.36;44.54
48964;BME280;34776;48.180;16.420;2023-07-20T01:38:52;99137.97;;;24.36;44.24
48964;BME280;34776;48.180;16.420;2023-07-20T01:41:18;99144.06;;;24.38;44.30
48964;BME280;34776;48.180;16.420;2023-07-20T01:43:43;99140.28;;;24.39;44.13
48964;BME280;34776;48.180;16.420;2023-07-20T01:46:09;99145.72;;;24.39;44.17
48964;BME280;34776;48.180;16.420;2023-07-20T01:48:35;99154.25;;;24.36;44.10
48964;BME280;34776;48.180;16.420;2023-07-20T01:51:00;99159.03;;;24.34;44.27
48964;BME280;34776;48.180;16.420;2023-07-20T01:53:25;99153.09;;;24.30;44.42
48964;BME280;34776;48.180;16.420;2023-07-20T01:55:54;99160.97;;;24.25;44.43
48964;BME280;34776;48.180;16.420;2023-07-20T01:58:20;99150.28;;;24.24;44.50
48964;BME280;34776;48.180;16.420;2023-07-20T02:00:46;99146.25;;;24.20;44.71
48964;BME280;34776;48.180;16.420;2023-07-20T02:03:11;99144.75;;;24.17;44.89
48964;BME280;34776;48.180;16.420;2023-07-20T02:05:42;99154.81;;;24.08;45.25
48964;BME280;34776;48.180;16.420;2023-07-20T02:08:07;99165.00;;;24.06;45.26
48964;BME280;34776;48.180;16.420;2023-07-20T02:10:34;99167.72;;;24.06;45.36
48964;BME280;34776;48.180;16.420;2023-07-20T02:12:59;99169.97;;;24.03;45.65
48964;BME280;34776;48.180;16.420;2023-07-20T02:15:25;99174.72;;;24.01;45.51
48964;BME280;34776;48.180;16.420;2023-07-20T02:17:50;99173.91;;;24.00;45.70
48964;BME280;34776;48.180;16.420;2023-07-20T02:20:15;99175.56;;;24.01;45.62
48964;BME280;34776;48.180;16.420;2023-07-20T02:22:41;99173.50;;;24.03;45.78
48964;BME280;34776;48.180;16.420;2023-07-20T02:25:07;99176.91;;;24.05;45.91
48964;BME280;34776;48.180;16.420;2023-07-20T02:27:36;99193.56;;;24.02;46.16
48964;BME280;34776;48.180;16.420;2023-07-20T02:30:02;99185.59;;;24.01;46.26
48964;BME280;34776;48.180;16.420;2023-07-20T02:32:29;99192.22;;;23.98;46.19
48964;BME280;34776;48.180;16.420;2023-07-20T02:34:54;99196.78;;;23.98;46.28
48964;BME280;34776;48.180;16.420;2023-07-20T02:37:20;99199.31;;;23.99;46.43
48964;BME280;34776;48.180;16.420;2023-07-20T02:39:45;99200.53;;;23.97;46.53
48964;BME280;34776;48.180;16.420;2023-07-20T02:42:10;99209.69;;;23.96;46.43
48964;BME280;34776;48.180;16.420;2023-07-20T02:44:36;99208.84;;;23.95;46.52
48964;BME280;34776;48.180;16.420;2023-07-20T02:47:01;99212.59;;;23.94;46.54
48964;BME280;34776;48.180;16.420;2023-07-20T02:49:27;99210.91;;;23.93;46.60
48964;BME280;34776;48.180;16.420;2023-07-20T02:51:52;99215.50;;;23.93;46.65
48964;BME280;34776;48.180;16.420;2023-07-20T02:54:17;99217.72;;;23.89;46.81
48964;BME280;34776;48.180;16.420;2023-07-20T02:56:43;99227.22;;;23.85;47.03
48964;BME280;34776;48.180;16.420;2023-07-20T02:59:08;99228.25;;;23.84;46.85
48964;BME280;34776;48.180;16.420;2023-07-20T03:01:34;99225.56;;;23.84;46.53
48964;BME280;34776;48.180;16.420;2023-07-20T03:03:59;99228.59;;;23.81;46.85
48964;BME280;34776;48.180;16.420;2023-07-20T03:06:24;99239.84;;;23.78;47.02
48964;BME280;34776;48.180;16.420;2023-07-20T03:08:50;99245.41;;;23.76;47.20
48964;BME280;34776;48.180;16.420;2023-07-20T03:11:19;99249.31;;;23.74;46.93
48964;BME280;34776;48.180;16.420;2023-07-20T03:13:46;99245.94;;;23.71;47.07
48964;BME280;34776;48.180;16.420;2023-07-20T03:16:13;99250.31;;;23.73;47.15
48964;BME280;34776;48.180;16.420;2023-07-20T03:18:44;99266.97;;;23.69;47.11
48964;BME280;34776;48.180;16.420;2023-07-20T03:21:10;99269.00;;;23.67;47.29
48964;BME280;34776;48.180;16.420;2023-07-20T03:23:39;99273.41;;;23.68;47.10
48964;BME280;34776;48.180;16.420;2023-07-20T03:26:05;99269.69;;;23.69;47.07
48964;BME280;34776;48.180;16.420;2023-07-20T03:28:30;99273.06;;;23.71;47.35
48964;BME280;34776;48.180;16.420;2023-07-20T03:30:56;99266.78;;;23.71;46.99
48964;BME280;34776;48.180;16.420;2023-07-20T03:33:24;99275.09;;;23.69;46.98
48964;BME280;34776;48.180;16.420;2023-07-20T03:35:50;99278.16;;;23.66;46.77
48964;BME280;34776;48.180;16.420;2023-07-20T03:38:15;99274.44;;;23.67;46.69
48964;BME280;34776;48.180;16.420;2023-07-20T03:40:49;99282.03;;;23.72;46.73
48964;BME280;34776;48.180;16.420;2023-07-20T03:43:15;99294.09;;;23.78;46.19
48964;BME280;34776;48.180;16.420;2023-07-20T03:45:40;99299.81;;;23.83;46.32
48964;BME280;34776;48.180;16.420;2023-07-20T03:48:05;99296.09;;;23.84;46.20
48964;BME280;34776;48.180;16.420;2023-07-20T03:50:31;99301.16;;;23.87;46.25
48964;BME280;34776;48.180;16.420;2023-07-20T03:52:56;99300.16;;;23.88;46.32
48964;BME280;34776;48.180;16.420;2023-07-20T03:55:21;99302.81;;;23.96;46.13
48964;BME280;34776;48.180;16.420;2023-07-20T03:57:47;99293.31;;;24.00;46.07
48964;BME280;34776;48.180;16.420;2023-07-20T04:00:12;99293.31;;;24.00;46.18
48964;BME280;34776;48.180;16.420;2023-07-20T04:02:39;99300.78;;;23.98;46.33
48964;BME280;34776;48.180;16.420;2023-07-20T04:05:05;99304.16;;;24.00;46.42
48964;BME280;34776;48.180;16.420;2023-07-20T04:07:30;99302.78;;;24.04;46.46
48964;BME280;34776;48.180;16.420;2023-07-20T04:09:55;99307.16;;;24.05;46.38
48964;BME280;34776;48.180;16.420;2023-07-20T04:12:21;99311.50;;;24.15;46.24
48964;BME280;34776;48.180;16.420;2023-07-20T04:14:46;99316.91;;;24.23;46.21
48964;BME280;34776;48.180;16.420;2023-07-20T04:17:12;99327.41;;;24.26;46.10
48964;BME280;34776;48.180;16.420;2023-07-20T04:19:38;99333.16;;;24.31;46.22
48964;BME280;34776;48.180;16.420;2023-07-20T04:22:04;99349.44;;;24.31;46.00
48964;BME280;34776;48.180;16.420;2023-07-20T04:24:29;99351.47;;;24.29;46.37
48964;BME280;34776;48.180;16.420;2023-07-20T04:26:54;99339.06;;;24.35;46.31
48964;BME280;34776;48.180;16.420;2023-07-20T04:29:20;99350.44;;;24.38;46.30
48964;BME280;34776;48.180;16.420;2023-07-20T04:31:45;99342.94;;;24.40;46.31
48964;BME280;34776;48.180;16.420;2023-07-20T04:34:10;99344.63;;;24.41;46.39
48964;BME280;34776;48.180;16.420;2023-07-20T04:36:35;99350.38;;;24.46;46.44
48964;BME280;34776;48.180;16.420;2023-07-20T04:39:03;99345.66;;;24.40;46.44
48964;BME280;34776;48.180;16.420;2023-07-20T04:41:28;99360.28;;;24.31;46.83
48964;BME280;34776;48.180;16.420;2023-07-20T04:43:53;99352.31;;;24.29;47.13
48964;BME280;34776;48.180;16.420;2023-07-20T04:46:19;99356.63;;;24.24;47.25
48964;BME280;34776;48.180;16.420;2023-07-20T04:48:46;99357.50;;;24.16;47.47
48964;BME280;34776;48.180;16.420;2023-07-20T04:51:13;99353.19;;;24.30;47.39
48964;BME280;34776;48.180;16.420;2023-07-20T04:53:38;99350.06;;;24.41;47.34
48964;BME280;34776;48.180;16.420;2023-07-20T04:56:03;99348.16;;;24.50;47.25
48964;BME280;34776;48.180;16.420;2023-07-20T04:58:29;99364.94;;;24.54;46.93
48964;BME280;34776;48.180;16.420;2023-07-20T05:00:54;99362.25;;;24.45;47.31
48964;BME280;34776;48.180;16.420;2023-07-20T05:03:20;99361.56;;;24.51;47.30
48964;BME280;34776;48.180;16.420;2023-07-20T05:05:46;99360.13;;;24.64;46.98
48964;BME280;34776;48.180;16.420;2023-07-20T05:08:12;99360.75;;;24.74;46.94
48964;BME280;34776;48.180;16.420;2023-07-20T05:10:37;99360.34;;;24.77;46.81
48964;BME280;34776;48.180;16.420;2023-07-20T05:13:03;99358.63;;;24.84;46.68
48964;BME280;34776;48.180;16.420;2023-07-20T05:15:28;99362.66;;;24.88;46.65
48964;BME280;34776;48.180;16.420;2023-07-20T05:17:55;99368.94;;;24.89;46.95
48964;BME280;34776;48.180;16.420;2023-07-20T05:20:20;99365.97;;;24.99;46.66
48964;BME280;34776;48.180;16.420;2023-07-20T05:22:46;99365.16;;;25.13;46.49
48964;BME280;34776;48.180;16.420;2023-07-20T05:25:11;99370.91;;;25.18;46.08
48964;BME280;34776;48.180;16.420;2023-07-20T05:27:37;99371.47;;;25.14;46.24
48964;BME280;34776;48.180;16.420;2023-07-20T05:30:04;99378.09;;;25.11;46.05
48964;BME280;34776;48.180;16.420;2023-07-20T05:32:30;99373.59;;;25.03;46.39
48964;BME280;34776;48.180;16.420;2023-07-20T05:34:55;99373.75;;;25.02;46.11
48964;BME280;34776;48.180;16.420;2023-07-20T05:37:21;99365.44;;;25.03;46.46
48964;BME280;34776;48.180;16.420;2023-07-20T05:39:46;99377.81;;;25.06;46.36
48964;BME280;34776;48.180;16.420;2023-07-20T05:42:12;99365.16;;;25.13;46.38
48964;BME280;34776;48.180;16.420;2023-07-20T05:44:37;99369.84;;;25.19;46.23
48964;BME280;34776;48.180;16.420;2023-07-20T05:47:03;99373.63;;;25.18;46.14
48964;BME280;34776;48.180;16.420;2023-07-20T05:49:28;99375.69;;;25.16;45.90
48964;BME280;34776;48.180;16.420;2023-07-20T05:51:55;99367.84;;;25.21;46.19
48964;BME280;34776;48.180;16.420;2023-07-20T05:54:21;99369.06;;;25.34;45.95
48964;BME280;34776;48.180;16.420;2023-07-20T05:56:46;99377.81;;;25.44;45.77
48964;BME280;34776;48.180;16.420;2023-07-20T05:59:12;99373.31;;;25.51;45.77
48964;BME280;34776;48.180;16.420;2023-07-20T06:01:37;99380.38;;;25.60;45.49
48964;BME280;34776;48.180;16.420;2023-07-20T06:04:03;99371.56;;;25.58;45.30
48964;BME280;34776;48.180;16.420;2023-07-20T06:06:29;99366.84;;;25.52;45.38
48964;BME280;34776;48.180;16.420;2023-07-20T06:08:54;99385.41;;;25.48;45.14
48964;BME280;34776;48.180;16.420;2023-07-20T06:11:20;99383.53;;;25.49;44.86
48964;BME280;34776;48.180;16.420;2023-07-20T06:13:45;99381.38;;;25.59;44.69
48964;BME280;34776;48.180;16.420;2023-07-20T06:16:12;99386.38;;;25.70;44.57
48964;BME280;34776;48.180;16.420;2023-07-20T06:18:37;99387.50;;;25.76;44.68
48964;BME280;34776;48.180;16.420;2023-07-20T06:21:03;99383.97;;;25.90;44.56
48964;BME280;34776;48.180;16.420;2023-07-20T06:23:28;99377.84;;;26.03;44.07
48964;BME280;34776;48.180;16.420;2023-07-20T06:25:54;99380.94;;;26.15;44.02
48964;BME280;34776;48.180;16.420;2023-07-20T06:28:19;99381.56;;;26.32;43.46
48964;BME280;34776;48.180;16.420;2023-07-20T06:30:45;99383.97;;;26.57;43.17
48964;BME280;34776;48.180;16.420;2023-07-20T06:33:10;99391.81;;;28.29;40.57
48964;BME280;34776;48.180;16.420;2023-07-20T06:35:35;99382.50;;;30.88;35.98
48964;BME280;34776;48.180;16.420;2023-07-20T06:38:01;99385.09;;;32.02;33.57
48964;BME280;34776;48.180;16.420;2023-07-20T06:40:29;99384.34;;;33.58;31.61
48964;BME280;34776;48.180;16.420;2023-07-20T06:42:55;99390.19;;;34.09;30.80
48964;BME280;34776;48.180;16.420;2023-07-20T06:45:20;99402.03;;;32.54;32.57
48964;BME280;34776;48.180;16.420;2023-07-20T06:47:46;99390.56;;;33.89;30.68
48964;BME280;34776;48.180;16.420;2023-07-20T06:50:11;99395.06;;;35.33;28.63
48964;BME280;34776;48.180;16.420;2023-07-20T06:52:36;99396.03;;;36.39;27.51
48964;BME280;34776;48.180;16.420;2023-07-20T06:55:02;99391.38;;;35.62;27.51
48964;BME280;34776;48.180;16.420;2023-07-20T06:57:28;99392.34;;;34.07;29.56
48964;BME280;34776;48.180;16.420;2023-07-20T06:59:53;99386.63;;;35.96;27.32
48964;BME280;34776;48.180;16.420;2023-07-20T07:02:19;99383.19;;;35.89;28.00
48964;BME280;34776;48.180;16.420;2023-07-20T07:04:44;99382.53;;;38.04;25.63
48964;BME280;34776;48.180;16.420;2023-07-20T07:07:13;99384.53;;;35.64;27.50
48964;BME280;34776;48.180;16.420;2023-07-20T07:09:38;99376.72;;;34.65;29.50
48964;BME280;34776;48.180;16.420;2023-07-20T07:12:04;99386.56;;;37.44;26.37
48964;BME280;34776;48.180;16.420;2023-07-20T07:14:29;99385.53;;;38.61;24.41
48964;BME280;34776;48.180;16.420;2023-07-20T07:16:55;99383.31;;;35.99;26.31
48964;BME280;34776;48.180;16.420;2023-07-20T07:19:20;99395.25;;;33.88;28.96
48964;BME280;34776;48.180;16.420;2023-07-20T07:21:45;99392.59;;;32.92;30.17
48964;BME280;34776;48.180;16.420;2023-07-20T07:24:11;99393.72;;;31.19;32.12
48964;BME280;34776;48.180;16.420;2023-07-20T07:26:36;99386.44;;;33.09;30.66
48964;BME280;34776;48.180;16.420;2023-07-20T07:29:03;99390.00;;;32.19;31.30
48964;BME280;34776;48.180;16.420;2023-07-20T07:31:29;99380.84;;;30.87;33.44
48964;BME280;34776;48.180;16.420;2023-07-20T07:33:55;99387.78;;;30.51;34.31
48964;BME280;34776;48.180;16.420;2023-07-20T07:36:20;99385.22;;;29.98;35.14
48964;BME280;34776;48.180;16.420;2023-07-20T07:38:46;99386.59;;;30.27;34.64
48964;BME280;34776;48.180;16.420;2023-07-20T07:41:11;99390.06;;;30.09;35.27
48964;BME280;34776;48.180;16.420;2023-07-20T07:43:37;99382.59;;;30.30;34.43
48964;BME280;34776;48.180;16.420;2023-07-20T07:46:03;99378.53;;;29.61;35.44
48964;BME280;34776;48.180;16.420;2023-07-20T07:48:29;99385.09;;;32.02;33.44
48964;BME280;34776;48.180;16.420;2023-07-20T07:50:54;99389.72;;;32.87;30.86
48964;BME280;34776;48.180;16.420;2023-07-20T07:53:19;99388.31;;;31.99;32.29
48964;BME280;34776;48.180;16.420;2023-07-20T07:55:47;99372.09;;;34.13;29.29
48964;BME280;34776;48.180;16.420;2023-07-20T07:58:13;99390.00;;;36.42;26.86
48964;BME280;34776;48.180;16.420;2023-07-20T08:00:39;99381.59;;;35.37;27.37
48964;BME280;34776;48.180;16.420;2023-07-20T08:03:06;99385.41;;;36.53;26.69
48964;BME280;34776;48.180;16.420;2023-07-20T08:05:32;99384.50;;;39.18;23.73
48964;BME280;34776;48.180;16.420;2023-07-20T08:07:57;99377.84;;;39.09;23.58
48964;BME280;34776;48.180;16.420;2023-07-20T08:10:22;99378.78;;;37.41;25.14
48964;BME280;34776;48.180;16.420;2023-07-20T08:12:48;99379.94;;;38.45;23.72
48964;BME280;34776;48.180;16.420;2023-07-20T08:15:13;99376.72;;;36.44;25.48
48964;BME280;34776;48.180;16.420;2023-07-20T08:17:41;99376.09;;;36.15;26.31
48964;BME280;34776;48.180;16.420;2023-07-20T08:20:06;99383.22;;;38.37;23.73
48964;BME280;34776;48.180;16.420;2023-07-20T08:22:32;99380.59;;;39.70;22.48
48964;BME280;34776;48.180;16.420;2023-07-20T08:24:57;99379.72;;;39.90;21.78
48964;BME280;34776;48.180;16.420;2023-07-20T08:27:23;99372.19;;;37.52;24.21
48964;BME280;34776;48.180;16.420;2023-07-20T08:29:48;99367.28;;;39.01;23.20
48964;BME280;34776;48.180;16.420;2023-07-20T08:32:14;99374.94;;;37.47;23.72
48964;BME280;34776;48.180;16.420;2023-07-20T08:34:41;99382.47;;;35.09;26.39
48964;BME280;34776;48.180;16.420;2023-07-20T08:37:06;99386.53;;;33.02;28.89
48964;BME280;34776;48.180;16.420;2023-07-20T08:39:34;99378.28;;;31.43;31.30
48964;BME280;34776;48.180;16.420;2023-07-20T08:42:00;99379.56;;;30.51;32.51
48964;BME280;34776;48.180;16.420;2023-07-20T08:44:29;99373.84;;;30.01;33.24
48964;BME280;34776;48.180;16.420;2023-07-20T08:46:56;99379.91;;;30.17;33.33
48964;BME280;34776;48.180;16.420;2023-07-20T08:49:23;99372.84;;;30.41;32.92
48964;BME280;34776;48.180;16.420;2023-07-20T08:51:48;99370.50;;;29.86;33.80
48964;BME280;34776;48.180;16.420;2023-07-20T08:54:14;99367.38;;;29.69;34.25
48964;BME280;34776;48.180;16.420;2023-07-20T08:56:41;99369.91;;;29.64;35.00
48964;BME280;34776;48.180;16.420;2023-07-20T08:59:08;99376.28;;;29.24;34.98
48964;BME280;34776;48.180;16.420;2023-07-20T09:01:35;99394.72;;;28.69;35.86
48964;BME280;34776;48.180;16.420;2023-07-20T09:04:01;99397.50;;;28.34;36.67
48964;BME280;34776;48.180;16.420;2023-07-20T09:06:26;99391.56;;;28.17;36.89
48964;BME280;34776;48.180;16.420;2023-07-20T09:08:52;99397.91;;;30.51;34.78
48964;BME280;34776;48.180;16.420;2023-07-20T09:11:20;99385.81;;;34.94;28.88
48964;BME280;34776;48.180;16.420;2023-07-20T09:13:45;99375.88;;;34.64;27.94
48964;BME280;34776;48.180;16.420;2023-07-20T09:16:13;99369.91;;;36.08;26.74
48964;BME280;34776;48.180;16.420;2023-07-20T09:18:39;99368.78;;;38.40;23.93
48964;BME280;34776;48.180;16.420;2023-07-20T09:21:05;99364.50;;;39.47;22.69
48964;BME280;34776;48.180;16.420;2023-07-20T09:23:36;99369.88;;;38.29;23.96
48964;BME280;34776;48.180;16.420;2023-07-20T09:26:12;99371.66;;;37.97;23.81
48964;BME280;34776;48.180;16.420;2023-07-20T09:28:53;99372.94;;;35.50;26.34
48964;BME280;34776;48.180;16.420;2023-07-20T09:31:21;99372.22;;;33.47;29.27
48964;BME280;34776;48.180;16.420;2023-07-20T09:33:48;99371.63;;;32.01;31.14
48964;BME280;34776;48.180;16.420;2023-07-20T09:36:13;99371.06;;;30.98;32.51
48964;BME280;34776;48.180;16.420;2023-07-20T09:38:42;99373.09;;;30.26;33.74
48964;BME280;34776;48.180;16.420;2023-07-20T09:41:13;99380.44;;;29.87;34.59
48964;BME280;34776;48.180;16.420;2023-07-20T09:43:38;99386.38;;;29.57;34.90
48964;BME280;34776;48.180;16.420;2023-07-20T09:46:05;99391.44;;;29.47;35.20
48964;BME280;34776;48.180;16.420;2023-07-20T09:48:30;99390.56;;;29.40;35.47
48964;BME280;34776;48.180;16.420;2023-07-20T09:50:56;99389.75;;;29.32;35.81
48964;BME280;34776;48.180;16.420;2023-07-20T09:53:24;99389.31;;;29.09;35.79
48964;BME280;34776;48.180;16.420;2023-07-20T09:55:50;99385.72;;;29.08;36.08
48964;BME280;34776;48.180;16.420;2023-07-20T09:58:17;99379.41;;;28.94;36.47
48964;BME280;34776;48.180;16.420;2023-07-20T10:00:44;99393.44;;;28.65;36.84
48964;BME280;34776;48.180;16.420;2023-07-20T10:03:14;99397.97;;;28.44;37.51
48964;BME280;34776;48.180;16.420;2023-07-20T10:05:43;99395.94;;;28.60;37.11
48964;BME280;34776;48.180;16.420;2023-07-20T10:08:12;99398.72;;;28.86;36.79
48964;BME280;34776;48.180;16.420;2023-07-20T10:10:41;99389.91;;;28.84;36.75
48964;BME280;34776;48.180;16.420;2023-07-20T10:13:19;99380.88;;;29.04;36.48
48964;BME280;34776;48.180;16.420;2023-07-20T10:15:58;99385.53;;;29.37;36.47
48964;BME280;34776;48.180;16.420;2023-07-20T10:18:49;99379.81;;;29.58;36.22
48964;BME280;34776;48.180;16.420;2023-07-20T10:21:17;99386.75;;;29.61;35.81
48964;BME280;34776;48.180;16.420;2023-07-20T10:23:43;99389.94;;;29.51;35.69
48964;BME280;34776;48.180;16.420;2023-07-20T10:26:09;99375.66;;;29.22;35.70
48964;BME280;34776;48.180;16.420;2023-07-20T10:28:35;99378.38;;;29.22;35.82
48964;BME280;34776;48.180;16.420;2023-07-20T10:31:01;99373.09;;;29.54;35.34
48964;BME280;34776;48.180;16.420;2023-07-20T10:33:27;99370.25;;;30.01;34.82
48964;BME280;34776;48.180;16.420;2023-07-20T10:35:58;99376.25;;;30.36;33.61
48964;BME280;34776;48.180;16.420;2023-07-20T10:38:52;99358.25;;;30.53;32.53
48964;BME280;34776;48.180;16.420;2023-07-20T10:41:21;99377.88;;;30.82;31.66
48964;BME280;34776;48.180;16.420;2023-07-20T10:43:50;99374.66;;;30.60;31.89
48964;BME280;34776;48.180;16.420;2023-07-20T10:49:09;99373.34;;;31.26;31.18
48964;BME280;34776;48.180;16.420;2023-07-20T10:51:46;99377.66;;;31.41;29.82
48964;BME280;34776;48.180;16.420;2023-07-20T10:56:41;99373.00;;;31.16;30.58
48964;BME280;34776;48.180;16.420;2023-07-20T10:59:18;99357.91;;;31.07;29.94
48964;BME280;34776;48.180;16.420;2023-07-20T11:01:47;99369.50;;;30.77;30.77
48964;BME280;34776;48.180;16.420;2023-07-20T11:04:15;99355.47;;;30.60;30.70
48964;BME280;34776;48.180;16.420;2023-07-20T11:06:46;99359.81;;;30.68;30.76
48964;BME280;34776;48.180;16.420;2023-07-20T11:09:15;99354.53;;;31.05;30.39
48964;BME280;34776;48.180;16.420;2023-07-20T11:11:41;99341.09;;;30.97;30.69
48964;BME280;34776;48.180;16.420;2023-07-20T11:14:21;99345.13;;;31.19;30.92
48964;BME280;34776;48.180;16.420;2023-07-20T11:16:48;99344.56;;;31.35;30.42
48964;BME280;34776;48.180;16.420;2023-07-20T11:19:18;99356.53;;;31.48;29.53
48964;BME280;34776;48.180;16.420;2023-07-20T11:21:50;99332.56;;;31.55;29.46
48964;BME280;34776;48.180;16.420;2023-07-20T11:24:16;99334.09;;;31.88;30.09
48964;BME280;34776;48.180;16.420;2023-07-20T11:26:52;99337.97;;;32.17;29.58
48964;BME280;34776;48.180;16.420;2023-07-20T11:29:22;99334.69;;;32.27;29.46
48964;BME280;34776;48.180;16.420;2023-07-20T11:31:48;99336.84;;;32.25;28.90
48964;BME280;34776;48.180;16.420;2023-07-20T11:34:17;99333.31;;;32.36;28.60
48964;BME280;34776;48.180;16.420;2023-07-20T11:36:44;99327.88;;;32.29;28.89
48964;BME280;34776;48.180;16.420;2023-07-20T11:39:12;99347.31;;;32.16;28.49
48964;BME280;34776;48.180;16.420;2023-07-20T11:41:38;99331.09;;;32.26;28.37
48964;BME280;34776;48.180;16.420;2023-07-20T11:44:05;99329.19;;;32.27;27.84
48964;BME280;34776;48.180;16.420;2023-07-20T11:46:39;99327.38;;;32.02;28.37
48964;BME280;34776;48.180;16.420;2023-07-20T11:49:05;99315.41;;;32.45;28.36
48964;BME280;34776;48.180;16.420;2023-07-20T11:51:30;99316.69;;;32.73;28.09
48964;BME280;34776;48.180;16.420;2023-07-20T11:53:56;99314.94;;;32.79;28.05
48964;BME280;34776;48.180;16.420;2023-07-20T11:56:23;99311.97;;;33.04;26.91
48964;BME280;34776;48.180;16.420;2023-07-20T11:58:49;99325.19;;;33.25;26.36
48964;BME280;34776;48.180;16.420;2023-07-20T12:01:15;99319.16;;;33.28;26.78
48964;BME280;34776;48.180;16.420;2023-07-20T12:03:43;99311.53;;;33.54;26.34
48964;BME280;34776;48.180;16.420;2023-07-20T12:06:09;99315.69;;;33.09;26.46
48964;BME280;34776;48.180;16.420;2023-07-20T12:08:38;99317.50;;;33.15;26.63
48964;BME280;34776;48.180;16.420;2023-07-20T12:11:03;99325.25;;;32.95;26.79
48964;BME280;34776;48.180;16.420;2023-07-20T12:13:43;99319.84;;;32.88;26.69
48964;BME280;34776;48.180;16.420;2023-07-20T12:16:14;99317.09;;;33.00;26.03
48964;BME280;34776;48.180;16.420;2023-07-20T12:18:41;99297.59;;;33.02;26.98
48964;BME280;34776;48.180;16.420;2023-07-20T12:21:07;99309.06;;;32.99;26.59
48964;BME280;34776;48.180;16.420;2023-07-20T12:23:38;99320.72;;;32.59;27.20
48964;BME280;34776;48.180;16.420;2023-07-20T12:26:09;99304.28;;;32.52;27.03
48964;BME280;34776;48.180;16.420;2023-07-20T12:28:41;99309.69;;;32.89;26.85
48964;BME280;34776;48.180;16.420;2023-07-20T12:31:08;99303.34;;;33.00;26.55
48964;BME280;34776;48.180;16.420;2023-07-20T12:33:34;99312.72;;;33.11;26.56
48964;BME280;34776;48.180;16.420;2023-07-20T12:36:00;99291.44;;;33.18;26.41
48964;BME280;34776;48.180;16.420;2023-07-20T12:38:26;99294.06;;;33.25;26.31
48964;BME280;34776;48.180;16.420;2023-07-20T12:40:53;99308.34;;;33.03;25.71
48964;BME280;34776;48.180;16.420;2023-07-20T12:43:20;99293.66;;;32.97;26.36
48964;BME280;34776;48.180;16.420;2023-07-20T12:45:45;99300.75;;;33.17;25.73
48964;BME280;34776;48.180;16.420;2023-07-20T12:48:10;99300.75;;;33.17;25.96
48964;BME280;34776;48.180;16.420;2023-07-20T12:50:36;99295.84;;;33.19;25.51
48964;BME280;34776;48.180;16.420;2023-07-20T12:53:01;99297.63;;;33.13;25.89
48964;BME280;34776;48.180;16.420;2023-07-20T12:55:29;99277.53;;;33.13;25.31
48964;BME280;34776;48.180;16.420;2023-07-20T12:57:54;99289.38;;;33.13;25.29
48964;BME280;34776;48.180;16.420;2023-07-20T13:00:20;99288.97;;;32.86;24.88
48964;BME280;34776;48.180;16.420;2023-07-20T13:02:48;99293.81;;;32.61;25.03
48964;BME280;34776;48.180;16.420;2023-07-20T13:05:13;99289.09;;;32.49;25.36